createdAt,value
2022-12-25T00:02:18.022Z,8.72
2022-12-25T00:04:45.908Z,8.69
2022-12-25T00:07:13.987Z,8.68
2022-12-25T00:09:42.276Z,8.71
2022-12-25T00:12:10.180Z,8.75
2022-12-25T00:14:39.445Z,8.72
2022-12-25T00:17:07.747Z,8.76
2022-12-25T00:19:35.702Z,8.79
2022-12-25T00:22:03.575Z,8.77
2022-12-25T00:24:31.882Z,8.80
2022-12-25T00:27:00.162Z,8.78
2022-12-25T00:29:27.950Z,8.79
2022-12-25T00:31:57.257Z,8.79
2022-12-25T00:34:25.296Z,8.79
2022-12-25T00:36:53.677Z,8.78
2022-12-25T00:39:21.605Z,8.78
2022-12-25T00:42:07.043Z,8.78
2022-12-25T00:44:35.741Z,8.79
2022-12-25T00:47:05.403Z,8.79
2022-12-25T00:49:33.260Z,8.79
2022-12-25T00:52:01.886Z,8.78
2022-12-25T00:54:29.781Z,8.79
2022-12-25T00:56:57.577Z,8.78
2022-12-25T00:59:25.427Z,8.78
2022-12-25T01:01:53.638Z,8.79
2022-12-25T01:04:22.938Z,8.79
2022-12-25T01:06:51.334Z,8.77
2022-12-25T01:09:36.520Z,8.73
2022-12-25T01:12:04.959Z,8.75
2022-12-25T01:14:37.047Z,8.72
2022-12-25T01:17:05.460Z,8.72
2022-12-25T01:19:34.646Z,8.72
2022-12-25T01:22:02.741Z,8.72
2022-12-25T01:24:31.109Z,8.72
2022-12-25T01:26:58.948Z,8.72
2022-12-25T01:29:27.597Z,8.73
2022-12-25T01:31:56.009Z,8.75
2022-12-25T01:34:23.897Z,8.76
2022-12-25T01:36:53.156Z,8.77
2022-12-25T01:39:21.797Z,8.78
2022-12-25T01:41:49.743Z,8.76
2022-12-25T01:44:56.856Z,8.74
2022-12-25T01:47:25.081Z,8.74
2022-12-25T01:49:52.920Z,8.72
2022-12-25T01:52:25.000Z,8.72
2022-12-25T01:54:56.628Z,8.72
2022-12-25T01:57:27.079Z,8.73
2022-12-25T01:59:56.148Z,8.73
2022-12-25T02:02:24.518Z,8.73
2022-12-25T02:04:59.833Z,8.73
2022-12-25T02:07:30.947Z,8.77
2022-12-25T02:09:58.766Z,8.76
2022-12-25T02:12:29.980Z,8.79
2022-12-25T02:15:05.776Z,8.78
2022-12-25T02:17:41.757Z,8.82
2022-12-25T02:20:38.807Z,8.86
2022-12-25T02:23:35.071Z,8.84
2022-12-25T02:26:16.795Z,8.82
2022-12-25T02:28:53.246Z,8.80
2022-12-25T02:31:31.161Z,8.80
2022-12-25T02:34:05.387Z,8.80
2022-12-25T02:36:38.796Z,8.78
2022-12-25T02:39:32.283Z,8.77
2022-12-25T02:42:03.597Z,8.75
2022-12-25T02:44:54.291Z,8.73
2022-12-25T02:47:40.017Z,8.74
2022-12-25T02:50:27.664Z,8.77
2022-12-25T02:53:17.344Z,8.75
2022-12-25T02:56:05.894Z,8.75
2022-12-25T02:58:56.293Z,8.75
2022-12-25T03:01:47.823Z,8.75
2022-12-25T03:04:37.329Z,8.74
2022-12-25T03:07:09.509Z,8.80
2022-12-25T03:09:59.325Z,8.75
2022-12-25T03:12:38.595Z,8.75
2022-12-25T03:15:35.283Z,8.75
2022-12-25T03:18:08.604Z,8.73
2022-12-25T03:20:55.796Z,8.74
2022-12-25T03:23:46.798Z,8.70
2022-12-25T03:26:32.466Z,8.68
2022-12-25T03:29:00.448Z,8.66
2022-12-25T03:31:36.710Z,8.65
2022-12-25T03:34:44.971Z,8.61
2022-12-25T03:37:47.155Z,8.61
2022-12-25T03:40:39.133Z,8.59
2022-12-25T03:43:31.266Z,8.58
2022-12-25T03:46:23.428Z,8.56
2022-12-25T03:49:12.907Z,8.56
2022-12-25T03:52:02.705Z,8.56
2022-12-25T03:54:51.990Z,8.56
2022-12-25T03:57:37.402Z,8.54
2022-12-25T04:00:24.064Z,8.54
2022-12-25T04:03:09.816Z,8.54
2022-12-25T04:05:55.581Z,8.56
2022-12-25T04:08:42.664Z,8.54
2022-12-25T04:11:28.168Z,8.55
2022-12-25T04:14:13.428Z,8.55
2022-12-25T04:16:58.674Z,8.57
2022-12-25T04:19:44.119Z,8.57
2022-12-25T04:22:29.456Z,8.59
2022-12-25T04:25:16.556Z,8.60
2022-12-25T04:28:03.087Z,8.61
2022-12-25T04:30:48.834Z,8.63
2022-12-25T04:33:34.901Z,8.65
2022-12-25T04:36:12.118Z,8.65
2022-12-25T04:38:41.624Z,8.63
2022-12-25T04:41:12.813Z,8.61
2022-12-25T04:43:40.921Z,8.58
2022-12-25T04:46:08.905Z,8.56
2022-12-25T04:48:38.339Z,8.55
2022-12-25T04:51:14.957Z,8.55
2022-12-25T04:53:43.215Z,8.53
2022-12-25T04:56:12.820Z,8.50
2022-12-25T04:58:40.757Z,8.49
2022-12-25T05:01:09.203Z,8.48
2022-12-25T05:03:37.636Z,8.51
2022-12-25T05:06:06.708Z,8.47
2022-12-25T05:08:35.884Z,8.44
2022-12-25T05:11:07.251Z,8.45
2022-12-25T05:13:36.751Z,8.47
2022-12-25T05:16:06.885Z,8.46
2022-12-25T05:18:34.738Z,8.46
2022-12-25T05:21:03.111Z,8.46
2022-12-25T05:23:31.430Z,8.48
2022-12-25T05:25:59.687Z,8.49
2022-12-25T05:28:28.153Z,8.49
2022-12-25T05:30:58.949Z,8.50
2022-12-25T05:33:26.865Z,8.53
2022-12-25T05:35:55.154Z,8.52
2022-12-25T05:38:23.012Z,8.53
2022-12-25T05:40:53.134Z,8.56
2022-12-25T05:43:21.207Z,8.54
2022-12-25T05:45:49.113Z,8.57
2022-12-25T05:48:18.739Z,8.60
2022-12-25T05:50:46.728Z,8.61
2022-12-25T05:53:16.901Z,8.61
2022-12-25T05:55:45.652Z,8.68
2022-12-25T05:58:14.354Z,8.72
2022-12-25T06:00:44.744Z,8.82
2022-12-25T06:03:12.781Z,8.81
2022-12-25T06:05:42.394Z,8.83
2022-12-25T06:08:12.888Z,8.81
2022-12-25T06:10:40.792Z,8.80
2022-12-25T06:13:08.609Z,8.78
2022-12-25T06:15:40.747Z,8.76
2022-12-25T06:18:09.418Z,8.73
2022-12-25T06:20:37.876Z,8.77
2022-12-25T06:23:07.162Z,8.71
2022-12-25T06:25:34.972Z,8.73
2022-12-25T06:28:02.746Z,8.72
2022-12-25T06:30:31.103Z,8.72
2022-12-25T06:32:59.963Z,9.02
2022-12-25T06:35:28.377Z,8.90
2022-12-25T06:37:57.226Z,8.89
2022-12-25T06:40:26.565Z,8.89
2022-12-25T06:42:54.691Z,8.90
2022-12-25T06:45:23.174Z,8.88
2022-12-25T06:47:51.099Z,8.90
2022-12-25T06:50:18.966Z,8.91
2022-12-25T06:52:47.108Z,8.90
2022-12-25T06:55:15.113Z,8.88
2022-12-25T06:57:44.337Z,8.91
2022-12-25T07:00:13.110Z,8.92
2022-12-25T07:02:47.690Z,8.92
2022-12-25T07:05:16.030Z,8.94
2022-12-25T07:07:43.867Z,8.97
2022-12-25T07:10:12.472Z,8.99
2022-12-25T07:12:40.949Z,9.02
2022-12-25T07:15:11.622Z,9.03
2022-12-25T07:17:39.855Z,9.04
2022-12-25T07:20:09.016Z,9.03
2022-12-25T07:22:37.259Z,9.05
2022-12-25T07:25:05.522Z,9.09
2022-12-25T07:27:33.374Z,9.07
2022-12-25T07:30:01.579Z,9.06
2022-12-25T07:32:32.639Z,9.06
2022-12-25T07:35:00.494Z,9.04
2022-12-25T07:37:28.708Z,9.02
2022-12-25T07:39:56.751Z,9.05
2022-12-25T07:42:25.581Z,9.05
2022-12-25T07:44:53.530Z,9.02
2022-12-25T07:47:21.663Z,9.02
2022-12-25T07:49:51.391Z,9.00
2022-12-25T07:52:19.193Z,9.02
2022-12-25T07:54:47.057Z,9.03
2022-12-25T07:57:15.328Z,9.02
2022-12-25T07:59:43.235Z,9.03
2022-12-25T08:02:11.705Z,9.03
2022-12-25T08:04:40.139Z,9.05
2022-12-25T08:07:09.266Z,9.08
2022-12-25T08:09:37.368Z,9.11
2022-12-25T08:12:05.915Z,9.16
2022-12-25T08:14:33.717Z,9.25
2022-12-25T08:17:01.994Z,9.35
2022-12-25T08:19:30.546Z,9.44
2022-12-25T08:21:58.665Z,9.46
2022-12-25T08:24:28.111Z,9.50
2022-12-25T08:26:56.181Z,9.53
2022-12-25T08:29:24.062Z,9.55
2022-12-25T08:31:52.328Z,9.55
2022-12-25T08:34:20.234Z,9.53
2022-12-25T08:36:48.136Z,9.53
2022-12-25T08:39:16.684Z,9.54
2022-12-25T08:41:45.834Z,9.54
2022-12-25T08:44:14.175Z,9.57
2022-12-25T08:46:42.204Z,9.58
2022-12-25T08:49:10.157Z,9.61
2022-12-25T08:51:39.093Z,9.62
2022-12-25T08:54:07.696Z,9.65
2022-12-25T08:56:36.623Z,9.71
2022-12-25T08:59:05.884Z,9.76
2022-12-25T09:01:34.613Z,9.81
2022-12-25T09:04:02.497Z,9.85
2022-12-25T09:06:30.394Z,9.93
2022-12-25T09:08:58.914Z,9.95
2022-12-25T09:11:26.741Z,10.00
2022-12-25T09:13:54.666Z,10.09
2022-12-25T09:16:24.700Z,10.14
2022-12-25T09:18:52.600Z,10.21
2022-12-25T09:21:20.815Z,10.52
2022-12-25T09:23:50.601Z,10.58
2022-12-25T09:26:20.341Z,10.63
2022-12-25T09:28:51.834Z,10.68
2022-12-25T09:31:21.077Z,10.75
2022-12-25T09:33:50.695Z,10.81
2022-12-25T09:36:18.825Z,10.83
2022-12-25T09:38:46.950Z,10.86
2022-12-25T09:41:19.432Z,10.89
2022-12-25T09:43:51.660Z,10.96
2022-12-25T09:46:22.546Z,11.03
2022-12-25T09:49:02.820Z,11.12
2022-12-25T09:51:35.345Z,11.22
2022-12-25T09:54:10.907Z,11.30
2022-12-25T09:56:39.205Z,11.41
2022-12-25T09:59:19.884Z,11.50
2022-12-25T10:02:21.758Z,11.65
2022-12-25T10:05:06.719Z,11.75
2022-12-25T10:07:44.868Z,11.87
2022-12-25T10:10:27.458Z,12.00
2022-12-25T10:13:06.121Z,12.13
2022-12-25T10:15:45.054Z,12.27
2022-12-25T10:18:37.021Z,12.42
2022-12-25T10:21:13.406Z,12.57
2022-12-25T10:23:45.297Z,12.66
2022-12-25T10:26:16.874Z,12.68
2022-12-25T10:28:46.978Z,12.65
2022-12-25T10:31:22.450Z,12.77
2022-12-25T10:33:52.760Z,12.83
2022-12-25T10:36:26.205Z,12.82
2022-12-25T10:38:55.271Z,12.82
2022-12-25T10:41:50.929Z,12.84
2022-12-25T10:44:20.931Z,12.84
2022-12-25T10:46:50.365Z,12.82
2022-12-25T10:49:20.841Z,12.84
2022-12-25T10:51:51.808Z,12.89
2022-12-25T10:54:25.873Z,12.95
2022-12-25T10:56:55.648Z,13.03
2022-12-25T10:59:24.143Z,13.13
2022-12-25T11:01:55.234Z,13.25
2022-12-25T11:04:28.683Z,13.43
2022-12-25T11:07:00.570Z,13.51
2022-12-25T11:09:28.849Z,13.59
2022-12-25T11:11:57.087Z,13.69
2022-12-25T11:14:25.616Z,13.70
2022-12-25T11:16:53.422Z,13.67
2022-12-25T11:19:30.538Z,13.63
2022-12-25T11:22:01.755Z,13.68
2022-12-25T11:24:31.970Z,13.70
2022-12-25T11:27:02.986Z,13.67
2022-12-25T11:29:39.374Z,13.59
2022-12-25T11:32:17.601Z,13.49
2022-12-25T11:34:48.098Z,13.45
2022-12-25T11:37:21.271Z,13.42
2022-12-25T11:39:49.504Z,13.45
2022-12-25T11:42:24.137Z,13.45
2022-12-25T11:44:58.290Z,13.47
2022-12-25T11:47:32.336Z,13.50
2022-12-25T11:50:06.294Z,13.57
2022-12-25T11:52:38.643Z,13.63
2022-12-25T11:55:19.814Z,13.64
2022-12-25T11:57:54.419Z,13.67
2022-12-25T12:00:23.147Z,13.76
2022-12-25T12:02:58.939Z,13.95
2022-12-25T12:05:33.738Z,14.14
2022-12-25T12:08:05.527Z,14.43
2022-12-25T12:10:58.489Z,14.51
2022-12-25T12:13:41.195Z,14.66
2022-12-25T12:16:11.148Z,14.73
2022-12-25T12:18:38.975Z,14.79
2022-12-25T12:21:11.330Z,14.90
2022-12-25T12:23:54.331Z,15.02
2022-12-25T12:26:24.960Z,15.09
2022-12-25T12:28:55.662Z,15.15
2022-12-25T12:31:24.323Z,15.10
2022-12-25T12:33:57.408Z,15.09
2022-12-25T12:36:36.096Z,15.16
2022-12-25T12:39:07.037Z,15.13
2022-12-25T12:41:45.879Z,15.20
2022-12-25T12:44:15.978Z,15.26
2022-12-25T12:46:52.948Z,15.22
2022-12-25T12:49:26.755Z,15.02
2022-12-25T12:52:06.403Z,14.91
2022-12-25T12:54:54.037Z,14.75
2022-12-25T12:57:27.007Z,14.62
2022-12-25T12:59:55.475Z,14.63
2022-12-25T13:02:48.595Z,14.81
2022-12-25T13:05:32.219Z,14.98
2022-12-25T13:08:13.590Z,15.04
2022-12-25T13:10:48.415Z,15.12
2022-12-25T13:13:21.561Z,15.22
2022-12-25T13:15:51.858Z,15.30
2022-12-25T13:18:20.133Z,15.40
2022-12-25T13:20:55.282Z,15.42
2022-12-25T13:23:27.975Z,15.60
2022-12-25T13:25:59.198Z,15.56
2022-12-25T13:28:28.900Z,15.59
2022-12-25T13:31:04.625Z,15.62
2022-12-25T13:33:32.664Z,15.72
2022-12-25T13:36:00.606Z,15.64
2022-12-25T13:38:30.697Z,15.67
2022-12-25T13:41:17.723Z,15.79
2022-12-25T13:43:47.361Z,15.71
2022-12-25T13:46:16.335Z,15.73
2022-12-25T13:48:44.391Z,15.69
2022-12-25T13:51:17.369Z,15.73
2022-12-25T13:53:45.870Z,15.73
2022-12-25T13:56:17.177Z,15.65
2022-12-25T13:58:49.490Z,15.56
2022-12-25T14:01:18.803Z,15.40
2022-12-25T14:03:48.248Z,15.21
2022-12-25T14:06:20.595Z,15.06
2022-12-25T14:08:49.611Z,14.92
2022-12-25T14:11:22.629Z,14.78
2022-12-25T14:13:53.545Z,14.65
2022-12-25T14:16:23.170Z,14.54
2022-12-25T14:18:53.405Z,14.45
2022-12-25T14:21:29.626Z,14.38
2022-12-25T14:23:57.897Z,14.32
2022-12-25T14:26:30.377Z,14.26
2022-12-25T14:29:15.650Z,14.19
2022-12-25T14:31:46.849Z,14.11
2022-12-25T14:34:19.530Z,14.05
2022-12-25T14:36:47.977Z,13.95
2022-12-25T14:39:29.059Z,13.88
2022-12-25T14:41:58.595Z,13.79
2022-12-25T14:44:32.474Z,13.69
2022-12-25T14:47:15.652Z,13.63
2022-12-25T14:49:44.045Z,13.52
2022-12-25T14:52:19.048Z,13.44
2022-12-25T14:54:49.783Z,13.36
2022-12-25T14:57:29.838Z,13.32
2022-12-25T15:00:04.320Z,13.29
2022-12-25T15:02:41.638Z,13.22
2022-12-25T15:05:32.223Z,13.19
2022-12-25T15:08:20.564Z,13.14
2022-12-25T15:11:05.647Z,13.07
2022-12-25T15:13:35.320Z,13.03
2022-12-25T15:16:07.812Z,12.96
2022-12-25T15:18:41.261Z,12.89
2022-12-25T15:21:17.955Z,12.82
2022-12-25T15:23:45.941Z,12.77
2022-12-25T15:26:15.331Z,12.72
2022-12-25T15:28:45.188Z,12.66
2022-12-25T15:31:22.066Z,12.63
2022-12-25T15:33:50.874Z,12.66
2022-12-25T15:36:18.797Z,12.61
2022-12-25T15:38:46.635Z,12.59
2022-12-25T15:41:32.219Z,12.50
2022-12-25T15:44:02.337Z,12.47
2022-12-25T15:46:30.559Z,12.45
2022-12-25T15:48:59.034Z,12.52
2022-12-25T15:51:27.050Z,12.52
2022-12-25T15:53:55.033Z,12.54
2022-12-25T15:56:24.017Z,12.57
2022-12-25T15:58:51.991Z,12.61
2022-12-25T16:01:22.228Z,12.59
2022-12-25T16:03:51.563Z,12.60
2022-12-25T16:06:20.007Z,12.71
2022-12-25T16:08:47.941Z,12.70
2022-12-25T16:11:15.907Z,12.72
2022-12-25T16:13:44.264Z,12.70
2022-12-25T16:16:12.405Z,12.74
2022-12-25T16:18:47.368Z,12.76
2022-12-25T16:21:18.782Z,12.77
2022-12-25T16:23:47.030Z,12.95
2022-12-25T16:26:14.888Z,13.06
2022-12-25T16:28:42.712Z,13.09
2022-12-25T16:31:12.250Z,13.07
2022-12-25T16:33:41.541Z,13.14
2022-12-25T16:36:10.099Z,13.10
2022-12-25T16:38:38.926Z,13.06
2022-12-25T16:41:07.152Z,13.02
2022-12-25T16:43:34.936Z,13.04
2022-12-25T16:46:03.064Z,13.03
2022-12-25T16:48:30.927Z,13.01
2022-12-25T16:51:00.389Z,13.08
2022-12-25T16:53:28.568Z,13.05
2022-12-25T16:56:06.313Z,13.03
2022-12-25T16:58:34.851Z,13.04
2022-12-25T17:01:07.760Z,12.98
2022-12-25T17:03:36.028Z,12.95
2022-12-25T17:06:06.402Z,12.93
2022-12-25T17:08:34.225Z,12.88
2022-12-25T17:11:06.273Z,12.81
2022-12-25T17:13:34.145Z,12.80
2022-12-25T17:16:12.123Z,12.81
2022-12-25T17:18:39.966Z,12.81
2022-12-25T17:21:09.492Z,12.80
2022-12-25T17:23:38.868Z,12.80
2022-12-25T17:26:07.328Z,12.82
2022-12-25T17:28:35.823Z,12.78
2022-12-25T17:31:04.737Z,12.81
2022-12-25T17:33:33.864Z,12.88
2022-12-25T17:36:06.340Z,12.84
2022-12-25T17:38:35.876Z,12.85
2022-12-25T17:41:07.121Z,12.90
2022-12-25T17:43:37.220Z,12.95
2022-12-25T17:46:06.978Z,12.92
2022-12-25T17:48:36.595Z,12.91
2022-12-25T17:51:05.820Z,12.93
2022-12-25T17:53:36.600Z,12.98
2022-12-25T17:56:07.222Z,12.94
2022-12-25T17:58:35.072Z,12.97
2022-12-25T18:01:07.473Z,13.02
2022-12-25T18:03:36.693Z,12.95
2022-12-25T18:06:04.885Z,12.95
2022-12-25T18:08:39.025Z,12.95
2022-12-25T18:11:15.136Z,12.95
2022-12-25T18:13:43.860Z,12.93
2022-12-25T18:16:13.606Z,12.94
2022-12-25T18:18:49.532Z,12.96
2022-12-25T18:21:20.451Z,12.92
2022-12-25T18:23:49.351Z,12.92
2022-12-25T18:26:19.376Z,12.97
2022-12-25T18:28:47.900Z,12.93
2022-12-25T18:31:18.015Z,12.93
2022-12-25T18:33:46.907Z,12.93
2022-12-25T18:36:16.875Z,12.82
2022-12-25T18:38:44.739Z,12.78
2022-12-25T18:41:13.204Z,12.77
2022-12-25T18:43:52.062Z,12.74
2022-12-25T18:46:24.224Z,12.70
2022-12-25T18:48:53.314Z,12.66
2022-12-25T18:51:21.174Z,12.63
2022-12-25T18:53:48.974Z,12.72
2022-12-25T18:56:18.838Z,12.63
2022-12-25T18:58:48.502Z,12.62
2022-12-25T19:01:18.705Z,12.69
2022-12-25T19:03:48.898Z,12.64
2022-12-25T19:06:21.140Z,12.69
2022-12-25T19:08:49.598Z,12.68
2022-12-25T19:11:18.091Z,12.73
2022-12-25T19:13:47.992Z,12.70
2022-12-25T19:16:16.656Z,12.66
2022-12-25T19:18:45.260Z,12.69
2022-12-25T19:21:13.671Z,12.80
2022-12-25T19:23:41.996Z,12.73
2022-12-25T19:26:11.261Z,12.71
2022-12-25T19:28:40.375Z,12.68
2022-12-25T19:31:10.961Z,12.67
2022-12-25T19:33:41.429Z,12.61
2022-12-25T19:36:12.017Z,12.61
2022-12-25T19:38:39.901Z,12.61
2022-12-25T19:41:08.773Z,12.63
2022-12-25T19:43:38.536Z,12.64
2022-12-25T19:46:08.768Z,12.58
2022-12-25T19:48:38.873Z,12.66
2022-12-25T19:51:16.251Z,12.57
2022-12-25T19:53:44.102Z,12.56
2022-12-25T19:56:11.976Z,12.53
2022-12-25T19:58:40.487Z,12.57
2022-12-25T20:01:10.244Z,12.45
2022-12-25T20:03:46.145Z,12.50
2022-12-25T20:06:19.866Z,12.43
2022-12-25T20:08:48.429Z,12.40
2022-12-25T20:11:16.870Z,12.46
2022-12-25T20:13:45.199Z,12.43
2022-12-25T20:16:13.642Z,12.37
2022-12-25T20:18:43.388Z,12.42
2022-12-25T20:21:14.524Z,12.37
2022-12-25T20:23:42.634Z,12.36
2022-12-25T20:26:12.030Z,12.43
2022-12-25T20:28:43.720Z,12.43
2022-12-25T20:31:14.947Z,12.39
2022-12-25T20:33:48.827Z,12.38
2022-12-25T20:36:18.481Z,12.43
2022-12-25T20:38:46.665Z,12.39
2022-12-25T20:41:32.430Z,12.40
2022-12-25T20:44:01.888Z,12.41
2022-12-25T20:46:30.148Z,12.46
2022-12-25T20:48:59.878Z,12.45
2022-12-25T20:51:28.634Z,12.47
2022-12-25T20:53:57.079Z,12.44
2022-12-25T20:56:27.552Z,12.44
2022-12-25T20:58:56.276Z,12.44
2022-12-25T21:01:27.844Z,12.43
2022-12-25T21:03:56.200Z,12.46
2022-12-25T21:06:25.988Z,12.45
2022-12-25T21:08:57.569Z,12.48
2022-12-25T21:11:25.468Z,12.51
2022-12-25T21:13:53.958Z,12.50
2022-12-25T21:16:23.500Z,12.50
2022-12-25T21:18:54.343Z,12.51
2022-12-25T21:21:23.940Z,12.43
2022-12-25T21:23:56.404Z,12.50
2022-12-25T21:26:26.455Z,12.46
2022-12-25T21:28:57.738Z,12.43
2022-12-25T21:31:26.492Z,12.44
2022-12-25T21:33:55.367Z,12.40
2022-12-25T21:36:27.613Z,12.41
2022-12-25T21:38:59.157Z,12.48
2022-12-25T21:41:28.299Z,12.40
2022-12-25T21:43:56.988Z,12.34
2022-12-25T21:46:27.974Z,12.34
2022-12-25T21:48:57.299Z,12.35
2022-12-25T21:51:44.915Z,12.30
2022-12-25T21:54:15.896Z,12.32
2022-12-25T21:56:45.680Z,12.31
2022-12-25T21:59:16.025Z,12.37
2022-12-25T22:01:44.476Z,12.32
2022-12-25T22:04:15.285Z,12.27
2022-12-25T22:07:00.803Z,12.35
2022-12-25T22:09:30.629Z,12.37
2022-12-25T22:12:16.262Z,12.41
2022-12-25T22:14:56.256Z,12.44
2022-12-25T22:17:44.994Z,12.47
2022-12-25T22:20:16.251Z,12.42
2022-12-25T22:22:44.550Z,12.46
2022-12-25T22:25:15.135Z,12.40
2022-12-25T22:27:44.607Z,12.37
2022-12-25T22:30:15.596Z,12.36
2022-12-25T22:32:44.139Z,12.35
2022-12-25T22:35:13.246Z,12.35
2022-12-25T22:37:42.514Z,12.43
2022-12-25T22:40:15.070Z,12.46
2022-12-25T22:42:43.875Z,12.44
2022-12-25T22:45:12.812Z,12.47
2022-12-25T22:47:41.461Z,12.45
2022-12-25T22:50:10.335Z,12.48
2022-12-25T22:52:38.261Z,12.48
2022-12-25T22:55:08.426Z,12.47
2022-12-25T22:57:37.705Z,12.46
2022-12-25T23:00:09.227Z,12.41
2022-12-25T23:02:37.531Z,12.46
2022-12-25T23:05:06.075Z,12.46
2022-12-25T23:07:34.270Z,12.50
2022-12-25T23:10:02.122Z,12.46
2022-12-25T23:12:50.212Z,12.48
2022-12-25T23:15:19.646Z,12.38
2022-12-25T23:18:05.442Z,12.43
2022-12-25T23:20:51.357Z,12.37
2022-12-25T23:23:36.946Z,12.34
2022-12-25T23:26:11.725Z,12.39
2022-12-25T23:28:59.559Z,12.39
2022-12-25T23:31:31.848Z,12.39
2022-12-25T23:33:59.975Z,12.39
2022-12-25T23:36:27.976Z,12.41
2022-12-25T23:38:56.197Z,12.40
2022-12-25T23:41:24.853Z,12.36
2022-12-25T23:43:52.888Z,12.35
2022-12-25T23:46:21.281Z,12.46
2022-12-25T23:48:50.928Z,12.33
2022-12-25T23:51:19.214Z,12.38
2022-12-25T23:53:47.002Z,12.59
2022-12-25T23:56:15.381Z,12.53
2022-12-25T23:58:45.289Z,12.50
